Terminal Aerodrome Forecast
Issued by NWS Sterling, VA

Current Version | Previous Version | Text Only | Print | Product List | Glossary Off
Versions: 1 2 3 4 5 6 7 8 9 10 11 12 13 14 15 16 17 18 19 20 21 22 23 24 25 26 27 28 29

514
FTUS41 KLWX 191453 AAA
TAFDCA
TAF AMD
KDCA 191453Z 1915/2012 29006KT P6SM BKN110
     FM191800 26006KT P6SM VCTS BKN035CB BKN050
     FM192200 27008KT P6SM FEW050 SCT120
     FM200300 31009KT P6SM FEW250=

USA.gov is the U.S. government's official web portal to all federal, state and local government web resources and services.